sensor_id;sensor_type;location;lat;lon;timestamp;pressure;altitude;pressure_sealevel;temperature;humidity
46267;BME280;31998;48.798;15.066;2022-08-11T00:01:27;96462.97;;;10.87;100.00
46267;BME280;31998;48.798;15.066;2022-08-11T00:03:59;96467.50;;;11.02;100.00
46267;BME280;31998;48.798;15.066;2022-08-11T00:06:32;96459.69;;;11.10;100.00
46267;BME280;31998;48.798;15.066;2022-08-11T00:09:03;96464.31;;;10.90;100.00
46267;BME280;31998;48.798;15.066;2022-08-11T00:11:35;96457.59;;;10.82;100.00
46267;BME280;31998;48.798;15.066;2022-08-11T00:14:02;96463.00;;;10.72;100.00
46267;BME280;31998;48.798;15.066;2022-08-11T00:16:28;96462.72;;;10.68;100.00
46267;BME280;31998;48.798;15.066;2022-08-11T00:18:55;96453.84;;;10.68;100.00
46267;BME280;31998;48.798;15.066;2022-08-11T00:21:23;96457.38;;;10.58;100.00
46267;BME280;31998;48.798;15.066;2022-08-11T00:23:54;96447.41;;;10.48;100.00
46267;BME280;31998;48.798;15.066;2022-08-11T00:26:21;96454.66;;;10.58;100.00
46267;BME280;31998;48.798;15.066;2022-08-11T00:28:47;96450.91;;;10.44;100.00
46267;BME280;31998;48.798;15.066;2022-08-11T00:31:30;96447.41;;;10.28;100.00
46267;BME280;31998;48.798;15.066;2022-08-11T00:33:57;96455.44;;;10.13;100.00
46267;BME280;31998;48.798;15.066;2022-08-11T00:36:48;96442.00;;;10.13;100.00
46267;BME280;31998;48.798;15.066;2022-08-11T00:39:16;96444.41;;;10.19;100.00
46267;BME280;31998;48.798;15.066;2022-08-11T00:53:10;96432.31;;;10.06;100.00
46267;BME280;31998;48.798;15.066;2022-08-11T01:04:47;96439.28;;;9.97;100.00
46267;BME280;31998;48.798;15.066;2022-08-11T01:10:22;96428.00;;;10.16;100.00
46267;BME280;31998;48.798;15.066;2022-08-11T01:16:22;96430.69;;;9.85;100.00
46267;BME280;31998;48.798;15.066;2022-08-11T01:30:28;96427.63;;;9.56;100.00
46267;BME280;31998;48.798;15.066;2022-08-11T01:39:11;96425.75;;;9.57;100.00
46267;BME280;31998;48.798;15.066;2022-08-11T01:41:51;96436.53;;;9.62;100.00
46267;BME280;31998;48.798;15.066;2022-08-11T01:45:04;96429.00;;;9.54;100.00
46267;BME280;31998;48.798;15.066;2022-08-11T01:47:42;96416.56;;;9.37;100.00
46267;BME280;31998;48.798;15.066;2022-08-11T01:53:20;96409.63;;;9.51;100.00
46267;BME280;31998;48.798;15.066;2022-08-11T01:56:11;96415.56;;;9.64;100.00
46267;BME280;31998;48.798;15.066;2022-08-11T02:01:39;96401.16;;;9.07;100.00
46267;BME280;31998;48.798;15.066;2022-08-11T02:04:29;96418.88;;;9.08;100.00
46267;BME280;31998;48.798;15.066;2022-08-11T02:07:35;96417.53;;;9.11;100.00
46267;BME280;31998;48.798;15.066;2022-08-11T02:10:14;96419.69;;;9.09;100.00
46267;BME280;31998;48.798;15.066;2022-08-11T02:13:16;96408.91;;;8.93;100.00
46267;BME280;31998;48.798;15.066;2022-08-11T02:16:04;96409.41;;;8.90;100.00
46267;BME280;31998;48.798;15.066;2022-08-11T02:18:36;96414.25;;;8.98;100.00
46267;BME280;31998;48.798;15.066;2022-08-11T02:21:29;96419.19;;;9.17;100.00
46267;BME280;31998;48.798;15.066;2022-08-11T02:24:23;96405.19;;;9.10;100.00
46267;BME280;31998;48.798;15.066;2022-08-11T02:26:59;96408.94;;;9.09;100.00
46267;BME280;31998;48.798;15.066;2022-08-11T02:29:41;96407.88;;;9.10;100.00
46267;BME280;31998;48.798;15.066;2022-08-11T02:35:02;96398.84;;;8.74;100.00
46267;BME280;31998;48.798;15.066;2022-08-11T02:56:15;96413.56;;;8.66;100.00
46267;BME280;31998;48.798;15.066;2022-08-11T02:59:06;96401.16;;;8.55;100.00
46267;BME280;31998;48.798;15.066;2022-08-11T03:01:59;96407.53;;;8.43;100.00
46267;BME280;31998;48.798;15.066;2022-08-11T03:04:36;96405.31;;;8.35;100.00
46267;BME280;31998;48.798;15.066;2022-08-11T03:07:24;96392.06;;;8.24;100.00
46267;BME280;31998;48.798;15.066;2022-08-11T03:12:57;96406.72;;;8.11;100.00
46267;BME280;31998;48.798;15.066;2022-08-11T03:15:51;96413.09;;;8.05;100.00
46267;BME280;31998;48.798;15.066;2022-08-11T03:18:48;96413.38;;;8.08;100.00
46267;BME280;31998;48.798;15.066;2022-08-11T03:21:32;96405.34;;;8.08;100.00
46267;BME280;31998;48.798;15.066;2022-08-11T03:24:10;96406.19;;;8.09;100.00
46267;BME280;31998;48.798;15.066;2022-08-11T03:29:29;96409.03;;;8.34;100.00
46267;BME280;31998;48.798;15.066;2022-08-11T03:32:03;96399.22;;;8.13;100.00
46267;BME280;31998;48.798;15.066;2022-08-11T03:34:32;96408.81;;;8.04;100.00
46267;BME280;31998;48.798;15.066;2022-08-11T03:46:07;96409.22;;;7.91;100.00
46267;BME280;31998;48.798;15.066;2022-08-11T03:49:14;96405.97;;;7.88;100.00
46267;BME280;31998;48.798;15.066;2022-08-11T03:51:52;96408.91;;;7.87;100.00
46267;BME280;31998;48.798;15.066;2022-08-11T04:03:20;96404.72;;;8.28;100.00
46267;BME280;31998;48.798;15.066;2022-08-11T04:06:06;96402.47;;;8.15;100.00
46267;BME280;31998;48.798;15.066;2022-08-11T04:17:34;96406.59;;;7.96;100.00
46267;BME280;31998;48.798;15.066;2022-08-11T04:25:28;96408.97;;;7.92;100.00
46267;BME280;31998;48.798;15.066;2022-08-11T04:39:38;96403.50;;;8.14;100.00
46267;BME280;31998;48.798;15.066;2022-08-11T04:42:37;96399.31;;;8.23;100.00
46267;BME280;31998;48.798;15.066;2022-08-11T05:08:05;96412.75;;;9.23;100.00
46267;BME280;31998;48.798;15.066;2022-08-11T05:13:58;96405.34;;;9.61;100.00
46267;BME280;31998;48.798;15.066;2022-08-11T05:16:51;96404.06;;;9.78;100.00
46267;BME280;31998;48.798;15.066;2022-08-11T05:19:36;96398.13;;;9.97;100.00
46267;BME280;31998;48.798;15.066;2022-08-11T05:22:25;96406.22;;;10.12;100.00
46267;BME280;31998;48.798;15.066;2022-08-11T05:25:15;96410.78;;;10.22;100.00
46267;BME280;31998;48.798;15.066;2022-08-11T05:28:10;96416.22;;;10.32;100.00
46267;BME280;31998;48.798;15.066;2022-08-11T05:31:02;96405.41;;;10.47;100.00
46267;BME280;31998;48.798;15.066;2022-08-11T05:33:53;96404.06;;;10.65;100.00
46267;BME280;31998;48.798;15.066;2022-08-11T05:36:46;96402.13;;;10.81;100.00
46267;BME280;31998;48.798;15.066;2022-08-11T05:39:15;96409.63;;;10.99;100.00
46267;BME280;31998;48.798;15.066;2022-08-11T05:42:01;96401.22;;;11.11;100.00
46267;BME280;31998;48.798;15.066;2022-08-11T05:44:47;96399.81;;;11.29;100.00
46267;BME280;31998;48.798;15.066;2022-08-11T05:47:33;96399.72;;;11.44;100.00
46267;BME280;31998;48.798;15.066;2022-08-11T05:50:20;96400.19;;;11.61;100.00
46267;BME280;31998;48.798;15.066;2022-08-11T05:53:09;96394.97;;;11.75;100.00
46267;BME280;31998;48.798;15.066;2022-08-11T05:55:54;96400.53;;;11.94;100.00
46267;BME280;31998;48.798;15.066;2022-08-11T05:58:40;96397.22;;;12.07;100.00
46267;BME280;31998;48.798;15.066;2022-08-11T06:01:07;96397.38;;;12.21;100.00
46267;BME280;31998;48.798;15.066;2022-08-11T06:03:33;96393.72;;;12.36;100.00
46267;BME280;31998;48.798;15.066;2022-08-11T06:06:24;96386.28;;;12.52;100.00
46267;BME280;31998;48.798;15.066;2022-08-11T06:08:55;96395.53;;;12.74;100.00
46267;BME280;31998;48.798;15.066;2022-08-11T06:11:21;96393.25;;;12.87;100.00
46267;BME280;31998;48.798;15.066;2022-08-11T06:13:48;96393.91;;;12.97;100.00
46267;BME280;31998;48.798;15.066;2022-08-11T06:16:21;96398.25;;;13.22;100.00
46267;BME280;31998;48.798;15.066;2022-08-11T06:18:48;96394.56;;;13.37;100.00
46267;BME280;31998;48.798;15.066;2022-08-11T06:21:14;96394.44;;;13.47;100.00
46267;BME280;31998;48.798;15.066;2022-08-11T06:23:41;96397.00;;;13.57;100.00
46267;BME280;31998;48.798;15.066;2022-08-11T06:26:12;96394.69;;;13.70;100.00
46267;BME280;31998;48.798;15.066;2022-08-11T06:28:39;96393.66;;;13.84;100.00
46267;BME280;31998;48.798;15.066;2022-08-11T06:31:14;96387.06;;;14.09;100.00
46267;BME280;31998;48.798;15.066;2022-08-11T06:36:38;96385.88;;;14.95;100.00
46267;BME280;31998;48.798;15.066;2022-08-11T06:39:22;96388.88;;;15.34;100.00
46267;BME280;31998;48.798;15.066;2022-08-11T06:42:06;96383.53;;;15.57;100.00
46267;BME280;31998;48.798;15.066;2022-08-11T06:44:39;96381.44;;;15.90;100.00
46267;BME280;31998;48.798;15.066;2022-08-11T06:47:08;96388.75;;;16.03;100.00
46267;BME280;31998;48.798;15.066;2022-08-11T06:49:41;96376.84;;;16.13;100.00
46267;BME280;31998;48.798;15.066;2022-08-11T06:52:31;96384.63;;;16.28;100.00
46267;BME280;31998;48.798;15.066;2022-08-11T06:55:04;96375.84;;;16.53;100.00
46267;BME280;31998;48.798;15.066;2022-08-11T06:57:36;96374.97;;;16.67;100.00
46267;BME280;31998;48.798;15.066;2022-08-11T07:00:20;96372.63;;;17.05;100.00
46267;BME280;31998;48.798;15.066;2022-08-11T07:03:12;96376.59;;;16.99;100.00
46267;BME280;31998;48.798;15.066;2022-08-11T07:06:01;96361.75;;;17.14;100.00
46267;BME280;31998;48.798;15.066;2022-08-11T07:08:46;96369.31;;;17.17;96.15
46267;BME280;31998;48.798;15.066;2022-08-11T07:14:36;96365.25;;;17.05;100.00
46267;BME280;31998;48.798;15.066;2022-08-11T07:17:22;96361.13;;;17.17;100.00
46267;BME280;31998;48.798;15.066;2022-08-11T07:19:57;96363.91;;;17.34;100.00
46267;BME280;31998;48.798;15.066;2022-08-11T07:22:48;96356.56;;;17.43;100.00
46267;BME280;31998;48.798;15.066;2022-08-11T07:25:38;96347.13;;;17.67;94.40
46267;BME280;31998;48.798;15.066;2022-08-11T07:28:25;96355.22;;;17.89;93.25
46267;BME280;31998;48.798;15.066;2022-08-11T07:31:13;96349.44;;;17.82;88.62
46267;BME280;31998;48.798;15.066;2022-08-11T07:33:45;96353.59;;;17.79;85.67
46267;BME280;31998;48.798;15.066;2022-08-11T07:36:12;96358.22;;;17.70;90.83
46267;BME280;31998;48.798;15.066;2022-08-11T07:38:42;96352.31;;;18.03;84.45
46267;BME280;31998;48.798;15.066;2022-08-11T07:41:10;96359.69;;;18.11;79.93
46267;BME280;31998;48.798;15.066;2022-08-11T07:43:37;96357.09;;;18.32;80.27
46267;BME280;31998;48.798;15.066;2022-08-11T07:46:04;96354.69;;;18.48;78.62
46267;BME280;31998;48.798;15.066;2022-08-11T07:48:48;96350.00;;;18.65;76.65
46267;BME280;31998;48.798;15.066;2022-08-11T07:51:33;96349.94;;;18.83;81.58
46267;BME280;31998;48.798;15.066;2022-08-11T07:54:19;96353.63;;;18.87;71.81
46267;BME280;31998;48.798;15.066;2022-08-11T07:56:45;96352.16;;;18.98;78.11
46267;BME280;31998;48.798;15.066;2022-08-11T07:59:11;96343.31;;;19.01;72.18
46267;BME280;31998;48.798;15.066;2022-08-11T08:01:56;96341.16;;;19.15;72.43
46267;BME280;31998;48.798;15.066;2022-08-11T08:04:41;96341.50;;;19.43;71.26
46267;BME280;31998;48.798;15.066;2022-08-11T08:07:25;96338.34;;;19.53;74.10
46267;BME280;31998;48.798;15.066;2022-08-11T08:10:10;96330.22;;;19.74;65.46
46267;BME280;31998;48.798;15.066;2022-08-11T08:12:55;96335.88;;;20.11;63.88
46267;BME280;31998;48.798;15.066;2022-08-11T08:15:40;96331.47;;;20.52;65.96
46267;BME280;31998;48.798;15.066;2022-08-11T08:18:25;96335.81;;;21.35;52.51
46267;BME280;31998;48.798;15.066;2022-08-11T08:20:53;96327.50;;;21.84;54.90
46267;BME280;31998;48.798;15.066;2022-08-11T08:23:20;96325.25;;;22.26;52.43
46267;BME280;31998;48.798;15.066;2022-08-11T08:26:00;96315.06;;;22.27;46.34
46267;BME280;31998;48.798;15.066;2022-08-11T08:28:28;96321.91;;;22.77;53.53
46267;BME280;31998;48.798;15.066;2022-08-11T08:30:55;96324.41;;;23.13;47.43
46267;BME280;31998;48.798;15.066;2022-08-11T08:33:27;96320.63;;;23.53;48.69
46267;BME280;31998;48.798;15.066;2022-08-11T08:36:00;96313.41;;;23.80;43.92
46267;BME280;31998;48.798;15.066;2022-08-11T08:38:56;96315.31;;;24.53;42.51
46267;BME280;31998;48.798;15.066;2022-08-11T08:41:24;96307.72;;;24.47;43.38
46267;BME280;31998;48.798;15.066;2022-08-11T08:43:54;96314.22;;;23.80;42.98
46267;BME280;31998;48.798;15.066;2022-08-11T08:46:25;96308.22;;;23.94;46.96
46267;BME280;31998;48.798;15.066;2022-08-11T08:48:52;96308.88;;;23.88;42.78
46267;BME280;31998;48.798;15.066;2022-08-11T08:51:20;96304.72;;;24.17;43.10
46267;BME280;31998;48.798;15.066;2022-08-11T08:54:05;96305.50;;;24.56;41.09
46267;BME280;31998;48.798;15.066;2022-08-11T08:56:31;96308.78;;;24.42;44.03
46267;BME280;31998;48.798;15.066;2022-08-11T08:59:00;96293.72;;;24.55;41.76
46267;BME280;31998;48.798;15.066;2022-08-11T09:01:32;96301.53;;;23.76;37.62
46267;BME280;31998;48.798;15.066;2022-08-11T09:04:01;96300.66;;;23.72;40.99
46267;BME280;31998;48.798;15.066;2022-08-11T09:06:30;96298.44;;;23.97;39.56
46267;BME280;31998;48.798;15.066;2022-08-11T09:08:57;96292.34;;;24.26;40.86
46267;BME280;31998;48.798;15.066;2022-08-11T09:11:24;96295.25;;;23.75;40.88
46267;BME280;31998;48.798;15.066;2022-08-11T09:14:09;96296.75;;;24.31;39.52
46267;BME280;31998;48.798;15.066;2022-08-11T09:16:35;96289.44;;;24.39;40.23
46267;BME280;31998;48.798;15.066;2022-08-11T09:19:03;96286.56;;;24.74;40.39
46267;BME280;31998;48.798;15.066;2022-08-11T09:21:29;96290.91;;;24.75;37.72
46267;BME280;31998;48.798;15.066;2022-08-11T09:23:57;96290.25;;;24.81;38.67
46267;BME280;31998;48.798;15.066;2022-08-11T09:26:43;96287.75;;;24.73;41.19
46267;BME280;31998;48.798;15.066;2022-08-11T09:29:25;96285.81;;;24.54;37.60
46267;BME280;31998;48.798;15.066;2022-08-11T09:31:52;96286.28;;;24.36;37.96
46267;BME280;31998;48.798;15.066;2022-08-11T09:34:18;96293.94;;;24.27;40.17
46267;BME280;31998;48.798;15.066;2022-08-11T09:36:44;96287.94;;;24.41;41.40
46267;BME280;31998;48.798;15.066;2022-08-11T09:39:29;96287.78;;;24.53;42.37
46267;BME280;31998;48.798;15.066;2022-08-11T09:42:15;96278.00;;;24.56;41.07
46267;BME280;31998;48.798;15.066;2022-08-11T09:44:41;96278.94;;;24.25;37.55
46267;BME280;31998;48.798;15.066;2022-08-11T09:47:27;96283.25;;;24.42;40.93
46267;BME280;31998;48.798;15.066;2022-08-11T09:49:59;96285.81;;;24.54;37.43
46267;BME280;31998;48.798;15.066;2022-08-11T09:52:25;96278.78;;;24.33;36.42
46267;BME280;31998;48.798;15.066;2022-08-11T09:54:52;96266.47;;;24.31;41.74
46267;BME280;31998;48.798;15.066;2022-08-11T09:57:21;96258.09;;;24.43;36.51
46267;BME280;31998;48.798;15.066;2022-08-11T10:00:08;96276.47;;;24.58;37.80
46267;BME280;31998;48.798;15.066;2022-08-11T10:02:40;96271.47;;;24.45;38.13
46267;BME280;31998;48.798;15.066;2022-08-11T10:05:06;96264.19;;;24.52;40.06
46267;BME280;31998;48.798;15.066;2022-08-11T10:07:52;96270.19;;;24.39;42.05
46267;BME280;31998;48.798;15.066;2022-08-11T10:10:18;96267.97;;;23.86;37.64
46267;BME280;31998;48.798;15.066;2022-08-11T10:12:57;96268.03;;;23.90;42.08
46267;BME280;31998;48.798;15.066;2022-08-11T10:15:25;96268.84;;;23.90;39.37
46267;BME280;31998;48.798;15.066;2022-08-11T10:18:09;96266.47;;;24.31;42.58
46267;BME280;31998;48.798;15.066;2022-08-11T10:20:58;96262.97;;;24.73;41.20
46267;BME280;31998;48.798;15.066;2022-08-11T10:23:27;96255.31;;;24.85;40.24
46267;BME280;31998;48.798;15.066;2022-08-11T10:26:13;96250.66;;;25.12;39.03
46267;BME280;31998;48.798;15.066;2022-08-11T10:29:00;96246.63;;;25.33;37.61
46267;BME280;31998;48.798;15.066;2022-08-11T10:31:27;96245.56;;;25.14;38.13
46267;BME280;31998;48.798;15.066;2022-08-11T10:34:11;96236.28;;;25.03;35.81
46267;BME280;31998;48.798;15.066;2022-08-11T10:36:43;96243.47;;;25.08;38.46
46267;BME280;31998;48.798;15.066;2022-08-11T10:39:19;96231.94;;;25.02;38.93
46267;BME280;31998;48.798;15.066;2022-08-11T10:41:47;96233.75;;;25.14;35.45
46267;BME280;31998;48.798;15.066;2022-08-11T10:44:38;96227.22;;;25.26;32.90
46267;BME280;31998;48.798;15.066;2022-08-11T10:47:04;96224.47;;;25.26;35.83
46267;BME280;31998;48.798;15.066;2022-08-11T10:49:50;96227.84;;;25.15;34.87
46267;BME280;31998;48.798;15.066;2022-08-11T10:52:36;96214.53;;;25.17;34.52
46267;BME280;31998;48.798;15.066;2022-08-11T10:55:22;96220.16;;;25.28;38.74
46267;BME280;31998;48.798;15.066;2022-08-11T10:58:09;96218.38;;;25.69;41.94
46267;BME280;31998;48.798;15.066;2022-08-11T11:00:53;96219.16;;;25.70;40.08
46267;BME280;31998;48.798;15.066;2022-08-11T11:03:27;96226.41;;;25.82;39.37
46267;BME280;31998;48.798;15.066;2022-08-11T11:05:55;96213.00;;;25.50;34.05
46267;BME280;31998;48.798;15.066;2022-08-11T11:08:27;96222.38;;;25.46;36.29
46267;BME280;31998;48.798;15.066;2022-08-11T11:11:13;96228.50;;;25.62;36.93
46267;BME280;31998;48.798;15.066;2022-08-11T11:13:43;96224.38;;;25.19;36.58
46267;BME280;31998;48.798;15.066;2022-08-11T11:16:29;96222.16;;;24.78;37.43
46267;BME280;31998;48.798;15.066;2022-08-11T11:19:14;96215.69;;;24.94;38.83
46267;BME280;31998;48.798;15.066;2022-08-11T11:21:44;96214.66;;;25.28;39.33
46267;BME280;31998;48.798;15.066;2022-08-11T11:24:59;96207.03;;;25.18;39.05
46267;BME280;31998;48.798;15.066;2022-08-11T11:27:22;96209.78;;;25.75;39.15
46267;BME280;31998;48.798;15.066;2022-08-11T11:30:07;96205.69;;;26.32;37.86
46267;BME280;31998;48.798;15.066;2022-08-11T11:32:45;96199.81;;;26.74;36.52
46267;BME280;31998;48.798;15.066;2022-08-11T11:37:52;96198.59;;;25.94;35.26
46267;BME280;31998;48.798;15.066;2022-08-11T11:40:21;96191.06;;;25.61;37.12
46267;BME280;31998;48.798;15.066;2022-08-11T11:42:49;96194.16;;;25.86;35.82
46267;BME280;31998;48.798;15.066;2022-08-11T11:45:20;96198.19;;;25.92;35.74
46267;BME280;31998;48.798;15.066;2022-08-11T11:47:47;96194.50;;;26.18;36.85
46267;BME280;31998;48.798;15.066;2022-08-11T11:50:26;96196.84;;;26.53;37.30
46267;BME280;31998;48.798;15.066;2022-08-11T11:52:52;96201.13;;;26.47;38.15
46267;BME280;31998;48.798;15.066;2022-08-11T11:55:21;96198.53;;;26.28;36.84
46267;BME280;31998;48.798;15.066;2022-08-11T11:57:48;96195.91;;;26.01;34.92
46267;BME280;31998;48.798;15.066;2022-08-11T12:00:32;96201.16;;;25.20;36.65
46267;BME280;31998;48.798;15.066;2022-08-11T12:03:18;96205.09;;;25.19;36.83
46267;BME280;31998;48.798;15.066;2022-08-11T12:05:45;96196.91;;;24.99;38.39
46267;BME280;31998;48.798;15.066;2022-08-11T12:08:12;96207.22;;;24.79;36.98
46267;BME280;31998;48.798;15.066;2022-08-11T12:11:08;96204.28;;;24.69;37.54
46267;BME280;31998;48.798;15.066;2022-08-11T12:13:54;96201.59;;;24.49;40.77
46267;BME280;31998;48.798;15.066;2022-08-11T12:16:23;96196.53;;;24.32;39.01
46267;BME280;31998;48.798;15.066;2022-08-11T12:18:52;96202.97;;;24.17;41.12
46267;BME280;31998;48.798;15.066;2022-08-11T12:21:18;96203.94;;;24.28;42.20
46267;BME280;31998;48.798;15.066;2022-08-11T12:23:48;96184.88;;;24.84;39.70
46267;BME280;31998;48.798;15.066;2022-08-11T12:26:33;96191.44;;;25.59;37.57
46267;BME280;31998;48.798;15.066;2022-08-11T12:29:05;96185.25;;;26.00;36.04
46267;BME280;31998;48.798;15.066;2022-08-11T12:31:33;96168.13;;;26.20;36.64
46267;BME280;31998;48.798;15.066;2022-08-11T12:34:04;96178.88;;;26.33;37.65
46267;BME280;31998;48.798;15.066;2022-08-11T12:36:36;96182.19;;;26.45;35.54
46267;BME280;31998;48.798;15.066;2022-08-11T12:39:11;96166.56;;;26.64;34.14
46267;BME280;31998;48.798;15.066;2022-08-11T12:41:38;96163.16;;;26.81;35.66
46267;BME280;31998;48.798;15.066;2022-08-11T12:44:26;96161.25;;;26.92;35.39
46267;BME280;31998;48.798;15.066;2022-08-11T12:47:19;96162.91;;;27.04;35.98
46267;BME280;31998;48.798;15.066;2022-08-11T12:49:49;96162.38;;;26.81;36.01
46267;BME280;31998;48.798;15.066;2022-08-11T12:52:37;96155.19;;;26.28;34.72
46267;BME280;31998;48.798;15.066;2022-08-11T12:55:15;96159.44;;;26.18;36.00
46267;BME280;31998;48.798;15.066;2022-08-11T12:58:06;96164.50;;;26.50;35.78
46267;BME280;31998;48.798;15.066;2022-08-11T13:00:46;96155.97;;;26.69;32.65
46267;BME280;31998;48.798;15.066;2022-08-11T13:03:32;96158.56;;;26.48;33.14
46267;BME280;31998;48.798;15.066;2022-08-11T13:06:17;96158.97;;;26.09;33.07
46267;BME280;31998;48.798;15.066;2022-08-11T13:08:44;96159.84;;;26.20;34.75
46267;BME280;31998;48.798;15.066;2022-08-11T13:11:10;96149.50;;;26.10;32.78
46267;BME280;31998;48.798;15.066;2022-08-11T13:13:56;96154.38;;;26.28;33.40
46267;BME280;31998;48.798;15.066;2022-08-11T13:16:28;96139.06;;;26.34;31.28
46267;BME280;31998;48.798;15.066;2022-08-11T13:18:59;96144.31;;;26.42;31.40
46267;BME280;31998;48.798;15.066;2022-08-11T13:21:25;96139.19;;;26.41;34.72
46267;BME280;31998;48.798;15.066;2022-08-11T13:23:53;96130.91;;;26.44;37.32
46267;BME280;31998;48.798;15.066;2022-08-11T13:26:22;96126.50;;;26.88;33.02
46267;BME280;31998;48.798;15.066;2022-08-11T13:28:48;96128.47;;;26.87;32.35
46267;BME280;31998;48.798;15.066;2022-08-11T13:31:15;96129.44;;;26.54;34.47
46267;BME280;31998;48.798;15.066;2022-08-11T13:33:44;96124.41;;;26.22;34.06
46267;BME280;31998;48.798;15.066;2022-08-11T13:36:11;96131.13;;;25.88;37.03
46267;BME280;31998;48.798;15.066;2022-08-11T13:38:39;96136.31;;;25.59;36.32
46267;BME280;31998;48.798;15.066;2022-08-11T13:41:06;96126.31;;;25.44;35.83
46267;BME280;31998;48.798;15.066;2022-08-11T13:43:53;96123.50;;;25.10;34.48
46267;BME280;31998;48.798;15.066;2022-08-11T13:46:19;96119.59;;;24.85;36.21
46267;BME280;31998;48.798;15.066;2022-08-11T13:48:47;96126.88;;;24.74;37.79
46267;BME280;31998;48.798;15.066;2022-08-11T13:51:14;96119.69;;;24.92;36.98
46267;BME280;31998;48.798;15.066;2022-08-11T13:53:56;96114.00;;;25.38;37.17
46267;BME280;31998;48.798;15.066;2022-08-11T13:56:23;96107.25;;;25.65;37.69
46267;BME280;31998;48.798;15.066;2022-08-11T13:58:50;96105.91;;;25.86;35.63
46267;BME280;31998;48.798;15.066;2022-08-11T14:01:18;96103.00;;;26.09;37.41
46267;BME280;31998;48.798;15.066;2022-08-11T14:03:46;96107.34;;;26.13;35.64
46267;BME280;31998;48.798;15.066;2022-08-11T14:06:13;96114.31;;;26.00;38.08
46267;BME280;31998;48.798;15.066;2022-08-11T14:08:41;96109.66;;;25.70;39.24
46267;BME280;31998;48.798;15.066;2022-08-11T14:11:08;96100.72;;;25.47;38.14
46267;BME280;31998;48.798;15.066;2022-08-11T14:13:52;96121.38;;;25.00;38.79
46267;BME280;31998;48.798;15.066;2022-08-11T14:16:27;96110.84;;;24.79;39.66
46267;BME280;31998;48.798;15.066;2022-08-11T14:18:59;96105.28;;;24.76;39.76
46267;BME280;31998;48.798;15.066;2022-08-11T14:21:26;96105.38;;;24.83;39.56
46267;BME280;31998;48.798;15.066;2022-08-11T14:24:11;96099.56;;;24.88;40.46
46267;BME280;31998;48.798;15.066;2022-08-11T14:26:40;96096.06;;;25.17;37.22
46267;BME280;31998;48.798;15.066;2022-08-11T14:29:15;96094.16;;;25.59;38.43
46267;BME280;31998;48.798;15.066;2022-08-11T14:31:53;96088.63;;;25.92;36.08
46267;BME280;31998;48.798;15.066;2022-08-11T14:34:20;96090.25;;;25.97;35.72
46267;BME280;31998;48.798;15.066;2022-08-11T14:36:50;96093.44;;;25.99;37.63
46267;BME280;31998;48.798;15.066;2022-08-11T14:39:20;96089.91;;;26.02;38.65
46267;BME280;31998;48.798;15.066;2022-08-11T14:41:51;96083.81;;;25.82;38.15
46267;BME280;31998;48.798;15.066;2022-08-11T14:44:37;96084.81;;;26.04;37.80
46267;BME280;31998;48.798;15.066;2022-08-11T14:47:23;96096.69;;;26.08;39.17
46267;BME280;31998;48.798;15.066;2022-08-11T14:49:50;96095.91;;;26.11;40.24
46267;BME280;31998;48.798;15.066;2022-08-11T14:52:17;96088.03;;;26.13;37.50
46267;BME280;31998;48.798;15.066;2022-08-11T14:54:50;96089.75;;;26.29;38.44
46267;BME280;31998;48.798;15.066;2022-08-11T14:57:38;96084.28;;;26.36;35.99
46267;BME280;31998;48.798;15.066;2022-08-11T15:00:08;96086.66;;;26.37;40.28
46267;BME280;31998;48.798;15.066;2022-08-11T15:02:38;96082.66;;;25.83;34.13
46267;BME280;31998;48.798;15.066;2022-08-11T15:05:23;96085.41;;;25.87;38.42
46267;BME280;31998;48.798;15.066;2022-08-11T15:07:51;96089.28;;;26.19;37.99
46267;BME280;31998;48.798;15.066;2022-08-11T15:10:18;96079.28;;;26.48;37.49
46267;BME280;31998;48.798;15.066;2022-08-11T15:12:44;96076.63;;;26.66;34.46
46267;BME280;31998;48.798;15.066;2022-08-11T15:15:11;96082.53;;;26.61;34.75
46267;BME280;31998;48.798;15.066;2022-08-11T15:17:57;96082.22;;;26.73;38.03
46267;BME280;31998;48.798;15.066;2022-08-11T15:20:25;96068.31;;;26.59;37.80
46267;BME280;31998;48.798;15.066;2022-08-11T15:23:10;96076.72;;;26.25;35.24
46267;BME280;31998;48.798;15.066;2022-08-11T15:25:59;96076.03;;;25.95;38.86
46267;BME280;31998;48.798;15.066;2022-08-11T15:28:27;96078.78;;;25.95;36.10
46267;BME280;31998;48.798;15.066;2022-08-11T15:31:13;96076.44;;;25.56;39.22
46267;BME280;31998;48.798;15.066;2022-08-11T15:34:01;96074.94;;;25.02;40.64
46267;BME280;31998;48.798;15.066;2022-08-11T15:36:47;96082.72;;;24.93;39.71
46267;BME280;31998;48.798;15.066;2022-08-11T15:39:40;96072.34;;;24.83;39.44
46267;BME280;31998;48.798;15.066;2022-08-11T15:42:29;96071.34;;;24.68;41.46
46267;BME280;31998;48.798;15.066;2022-08-11T15:45:16;96066.53;;;24.61;39.22
46267;BME280;31998;48.798;15.066;2022-08-11T15:48:09;96069.59;;;24.56;43.96
46267;BME280;31998;48.798;15.066;2022-08-11T15:50:40;96061.13;;;24.42;41.49
46267;BME280;31998;48.798;15.066;2022-08-11T15:53:11;96070.66;;;24.25;42.02
46267;BME280;31998;48.798;15.066;2022-08-11T15:55:42;96066.91;;;24.10;42.90
46267;BME280;31998;48.798;15.066;2022-08-11T15:58:08;96069.59;;;24.07;46.21
46267;BME280;31998;48.798;15.066;2022-08-11T16:00:54;96071.13;;;23.81;43.19
46267;BME280;31998;48.798;15.066;2022-08-11T16:03:44;96077.00;;;23.61;48.46
46267;BME280;31998;48.798;15.066;2022-08-11T16:06:31;96078.13;;;23.60;47.03
46267;BME280;31998;48.798;15.066;2022-08-11T16:09:00;96071.72;;;23.52;49.73
46267;BME280;31998;48.798;15.066;2022-08-11T16:11:32;96069.78;;;23.52;45.73
46267;BME280;31998;48.798;15.066;2022-08-11T16:14:01;96059.72;;;24.29;50.81